sensor_id;sensor_type;location;lat;lon;timestamp;pressure;altitude;pressure_sealevel;temperature;humidity
38303;BME280;24103;42.454;27.400;2023-08-08T00:00:05;100229.13;;;22.06;100.00
38303;BME280;24103;42.454;27.400;2023-08-08T00:02:31;100212.16;;;22.06;100.00
38303;BME280;24103;42.454;27.400;2023-08-08T00:04:56;100222.19;;;22.12;100.00
38303;BME280;24103;42.454;27.400;2023-08-08T00:07:22;100225.38;;;22.16;100.00
38303;BME280;24103;42.454;27.400;2023-08-08T00:09:47;100234.53;;;21.82;100.00
38303;BME280;24103;42.454;27.400;2023-08-08T00:12:13;100233.88;;;21.80;100.00
38303;BME280;24103;42.454;27.400;2023-08-08T00:14:38;100224.44;;;21.92;100.00
38303;BME280;24103;42.454;27.400;2023-08-08T00:17:04;100226.97;;;21.94;100.00
38303;BME280;24103;42.454;27.400;2023-08-08T00:19:29;100228.50;;;21.88;100.00
38303;BME280;24103;42.454;27.400;2023-08-08T00:21:55;100234.88;;;21.79;100.00
38303;BME280;24103;42.454;27.400;2023-08-08T00:24:20;100225.31;;;21.68;100.00
38303;BME280;24103;42.454;27.400;2023-08-08T00:26:46;100214.34;;;21.78;100.00
38303;BME280;24103;42.454;27.400;2023-08-08T00:29:11;100205.13;;;21.88;86.07
38303;BME280;24103;42.454;27.400;2023-08-08T00:31:37;100200.22;;;22.00;82.57
38303;BME280;24103;42.454;27.400;2023-08-08T00:34:02;100196.50;;;22.09;74.17
38303;BME280;24103;42.454;27.400;2023-08-08T00:36:28;100191.41;;;22.23;73.26
38303;BME280;24103;42.454;27.400;2023-08-08T00:38:54;100191.91;;;22.18;70.96
38303;BME280;24103;42.454;27.400;2023-08-08T00:41:19;100183.69;;;22.20;68.13
38303;BME280;24103;42.454;27.400;2023-08-08T00:43:44;100178.94;;;22.22;65.80
38303;BME280;24103;42.454;27.400;2023-08-08T00:46:10;100180.66;;;22.31;65.75
38303;BME280;24103;42.454;27.400;2023-08-08T00:48:36;100184.34;;;22.30;65.66
38303;BME280;24103;42.454;27.400;2023-08-08T00:51:02;100184.53;;;22.12;68.01
38303;BME280;24103;42.454;27.400;2023-08-08T00:53:27;100200.50;;;22.14;68.78
38303;BME280;24103;42.454;27.400;2023-08-08T00:55:56;100199.34;;;22.08;67.66
38303;BME280;24103;42.454;27.400;2023-08-08T00:58:23;100196.50;;;22.09;66.73
38303;BME280;24103;42.454;27.400;2023-08-08T01:00:49;100201.59;;;21.96;68.54
38303;BME280;24103;42.454;27.400;2023-08-08T01:03:15;100201.72;;;22.03;68.77
38303;BME280;24103;42.454;27.400;2023-08-08T01:05:49;100203.56;;;21.94;67.92
38303;BME280;24103;42.454;27.400;2023-08-08T01:08:22;100201.25;;;21.99;68.67
38303;BME280;24103;42.454;27.400;2023-08-08T01:10:52;100202.91;;;21.92;68.05
38303;BME280;24103;42.454;27.400;2023-08-08T01:13:22;100203.75;;;21.93;67.65
38303;BME280;24103;42.454;27.400;2023-08-08T01:15:49;100204.41;;;22.03;65.58
38303;BME280;24103;42.454;27.400;2023-08-08T01:18:15;100203.72;;;22.01;65.37
38303;BME280;24103;42.454;27.400;2023-08-08T01:20:43;100196.84;;;21.98;65.32
38303;BME280;24103;42.454;27.400;2023-08-08T01:23:30;100200.06;;;21.94;65.74
38303;BME280;24103;42.454;27.400;2023-08-08T01:25:56;100196.38;;;21.95;66.62
38303;BME280;24103;42.454;27.400;2023-08-08T01:28:23;100188.97;;;21.88;67.80
38303;BME280;24103;42.454;27.400;2023-08-08T01:30:50;100186.94;;;21.90;68.40
38303;BME280;24103;42.454;27.400;2023-08-08T01:33:15;100188.97;;;21.88;68.88
38303;BME280;24103;42.454;27.400;2023-08-08T01:35:44;100189.31;;;21.85;70.20
38303;BME280;24103;42.454;27.400;2023-08-08T01:38:31;100182.94;;;21.86;70.50
38303;BME280;24103;42.454;27.400;2023-08-08T01:40:57;100187.13;;;21.81;70.88
38303;BME280;24103;42.454;27.400;2023-08-08T01:43:24;100180.25;;;21.78;71.90
38303;BME280;24103;42.454;27.400;2023-08-08T01:45:50;100187.84;;;21.75;72.44
38303;BME280;24103;42.454;27.400;2023-08-08T01:48:17;100173.22;;;21.52;73.42
38303;BME280;24103;42.454;27.400;2023-08-08T01:50:42;100183.31;;;21.59;73.98
38303;BME280;24103;42.454;27.400;2023-08-08T01:53:08;100184.16;;;21.51;75.29
38303;BME280;24103;42.454;27.400;2023-08-08T01:55:33;100195.22;;;21.56;76.08
38303;BME280;24103;42.454;27.400;2023-08-08T01:57:59;100191.03;;;21.53;77.08
38303;BME280;24103;42.454;27.400;2023-08-08T02:00:24;100199.41;;;21.42;78.46
38303;BME280;24103;42.454;27.400;2023-08-08T02:02:50;100202.09;;;21.34;79.88
38303;BME280;24103;42.454;27.400;2023-08-08T02:05:15;100202.44;;;21.31;81.10
38303;BME280;24103;42.454;27.400;2023-08-08T02:07:41;100198.06;;;21.30;82.06
38303;BME280;24103;42.454;27.400;2023-08-08T02:10:06;100194.53;;;21.29;82.38
38303;BME280;24103;42.454;27.400;2023-08-08T02:12:32;100201.94;;;21.27;83.44
38303;BME280;24103;42.454;27.400;2023-08-08T02:14:58;100203.25;;;21.23;85.00
38303;BME280;24103;42.454;27.400;2023-08-08T02:17:24;100197.88;;;21.15;86.08
38303;BME280;24103;42.454;27.400;2023-08-08T02:19:50;100203.78;;;21.19;86.36
38303;BME280;24103;42.454;27.400;2023-08-08T02:22:16;100195.34;;;21.13;86.79
38303;BME280;24103;42.454;27.400;2023-08-08T02:24:42;100196.38;;;21.21;85.09
38303;BME280;24103;42.454;27.400;2023-08-08T02:27:08;100195.03;;;21.25;84.88
38303;BME280;24103;42.454;27.400;2023-08-08T02:29:33;100202.41;;;21.23;85.56
38303;BME280;24103;42.454;27.400;2023-08-08T02:31:59;100196.03;;;21.15;85.66
38303;BME280;24103;42.454;27.400;2023-08-08T02:34:24;100208.28;;;21.18;86.40
38303;BME280;24103;42.454;27.400;2023-08-08T02:36:50;100197.53;;;21.10;88.17
38303;BME280;24103;42.454;27.400;2023-08-08T02:39:15;100211.31;;;21.15;86.88
38303;BME280;24103;42.454;27.400;2023-08-08T02:41:41;100223.56;;;21.09;87.00
38303;BME280;24103;42.454;27.400;2023-08-08T02:44:07;100229.59;;;21.11;86.88
38303;BME280;24103;42.454;27.400;2023-08-08T02:46:33;100242.88;;;21.13;86.97
38303;BME280;24103;42.454;27.400;2023-08-08T02:48:58;100241.72;;;21.24;86.89
38303;BME280;24103;42.454;27.400;2023-08-08T02:51:24;100236.69;;;21.21;88.25
38303;BME280;24103;42.454;27.400;2023-08-08T02:53:49;100248.25;;;21.21;88.38
38303;BME280;24103;42.454;27.400;2023-08-08T02:56:15;100247.28;;;21.22;86.69
38303;BME280;24103;42.454;27.400;2023-08-08T02:58:40;100246.94;;;21.25;85.96
38303;BME280;24103;42.454;27.400;2023-08-08T03:01:06;100257.50;;;21.19;88.17
38303;BME280;24103;42.454;27.400;2023-08-08T03:03:31;100263.34;;;21.06;87.85
38303;BME280;24103;42.454;27.400;2023-08-08T03:05:57;100265.91;;;21.15;87.36
38303;BME280;24103;42.454;27.400;2023-08-08T03:08:22;100285.91;;;21.29;86.96
38303;BME280;24103;42.454;27.400;2023-08-08T03:10:48;100279.38;;;21.40;86.22
38303;BME280;24103;42.454;27.400;2023-08-08T03:13:13;100277.00;;;21.37;86.20
38303;BME280;24103;42.454;27.400;2023-08-08T03:15:39;100287.59;;;21.39;85.98
38303;BME280;24103;42.454;27.400;2023-08-08T03:18:04;100278.41;;;21.49;84.91
38303;BME280;24103;42.454;27.400;2023-08-08T03:20:30;100280.25;;;21.49;84.46
38303;BME280;24103;42.454;27.400;2023-08-08T03:22:55;100286.47;;;21.66;83.56
38303;BME280;24103;42.454;27.400;2023-08-08T03:25:21;100295.41;;;21.75;82.86
38303;BME280;24103;42.454;27.400;2023-08-08T03:27:46;100301.28;;;21.86;81.04
38303;BME280;24103;42.454;27.400;2023-08-08T03:30:12;100293.69;;;22.06;80.80
38303;BME280;24103;42.454;27.400;2023-08-08T03:32:39;100286.28;;;22.08;76.75
38303;BME280;24103;42.454;27.400;2023-08-08T03:35:04;100284.59;;;22.16;75.98
38303;BME280;24103;42.454;27.400;2023-08-08T03:37:31;100282.56;;;22.34;74.05
38303;BME280;24103;42.454;27.400;2023-08-08T03:39:56;100270.28;;;22.40;73.22
38303;BME280;24103;42.454;27.400;2023-08-08T03:42:22;100279.53;;;22.37;72.50
38303;BME280;24103;42.454;27.400;2023-08-08T03:44:47;100280.84;;;22.50;71.27
38303;BME280;24103;42.454;27.400;2023-08-08T03:47:13;100279.13;;;22.57;71.34
38303;BME280;24103;42.454;27.400;2023-08-08T03:49:38;100285.84;;;22.61;70.92
38303;BME280;24103;42.454;27.400;2023-08-08T03:52:04;100293.38;;;22.74;69.62
38303;BME280;24103;42.454;27.400;2023-08-08T03:54:30;100295.88;;;22.84;69.24
38303;BME280;24103;42.454;27.400;2023-08-08T03:56:57;100296.75;;;22.76;67.81
38303;BME280;24103;42.454;27.400;2023-08-08T03:59:22;100296.13;;;22.66;68.63
38303;BME280;24103;42.454;27.400;2023-08-08T04:01:48;100289.41;;;22.53;68.14
38303;BME280;24103;42.454;27.400;2023-08-08T04:04:14;100292.75;;;22.55;68.26
38303;BME280;24103;42.454;27.400;2023-08-08T04:06:39;100298.25;;;22.70;67.43
38303;BME280;24103;42.454;27.400;2023-08-08T04:09:05;100307.88;;;22.64;67.54
38303;BME280;24103;42.454;27.400;2023-08-08T04:11:32;100308.41;;;22.60;69.05
38303;BME280;24103;42.454;27.400;2023-08-08T04:13:57;100313.94;;;22.67;67.97
38303;BME280;24103;42.454;27.400;2023-08-08T04:16:22;100315.97;;;22.64;68.38
38303;BME280;24103;42.454;27.400;2023-08-08T04:18:48;100320.34;;;22.66;68.80
38303;BME280;24103;42.454;27.400;2023-08-08T04:21:13;100323.00;;;22.74;69.19
38303;BME280;24103;42.454;27.400;2023-08-08T04:23:40;100328.66;;;22.95;68.54
38303;BME280;24103;42.454;27.400;2023-08-08T04:26:05;100338.09;;;22.91;66.77
38303;BME280;24103;42.454;27.400;2023-08-08T04:28:31;100336.78;;;22.87;67.25
38303;BME280;24103;42.454;27.400;2023-08-08T04:30:57;100338.59;;;22.87;68.43
38303;BME280;24103;42.454;27.400;2023-08-08T04:33:22;100338.28;;;22.81;69.06
38303;BME280;24103;42.454;27.400;2023-08-08T04:35:48;100331.53;;;22.94;68.32
38303;BME280;24103;42.454;27.400;2023-08-08T04:38:14;100326.16;;;22.86;68.63
38303;BME280;24103;42.454;27.400;2023-08-08T04:40:40;100332.91;;;22.81;69.87
38303;BME280;24103;42.454;27.400;2023-08-08T04:43:06;100329.53;;;22.88;69.96
38303;BME280;24103;42.454;27.400;2023-08-08T04:45:31;100337.63;;;22.79;69.71
38303;BME280;24103;42.454;27.400;2023-08-08T04:47:57;100333.44;;;22.77;70.56
38303;BME280;24103;42.454;27.400;2023-08-08T04:50:23;100339.00;;;22.75;69.54
38303;BME280;24103;42.454;27.400;2023-08-08T04:52:48;100329.06;;;22.76;70.06
38303;BME280;24103;42.454;27.400;2023-08-08T04:55:14;100335.28;;;22.76;69.48
38303;BME280;24103;42.454;27.400;2023-08-08T04:57:39;100337.09;;;22.92;69.24
38303;BME280;24103;42.454;27.400;2023-08-08T05:00:05;100340.09;;;22.97;68.83
38303;BME280;24103;42.454;27.400;2023-08-08T05:02:34;100336.69;;;23.04;69.60
38303;BME280;24103;42.454;27.400;2023-08-08T05:04:59;100325.75;;;23.05;68.36
38303;BME280;24103;42.454;27.400;2023-08-08T05:07:26;100340.88;;;23.14;66.87
38303;BME280;24103;42.454;27.400;2023-08-08T05:09:51;100344.38;;;23.23;67.14
38303;BME280;24103;42.454;27.400;2023-08-08T05:12:17;100338.34;;;23.44;66.72
38303;BME280;24103;42.454;27.400;2023-08-08T05:14:43;100353.47;;;23.53;65.73
38303;BME280;24103;42.454;27.400;2023-08-08T05:17:08;100349.78;;;23.78;64.68
38303;BME280;24103;42.454;27.400;2023-08-08T05:19:33;100358.91;;;24.00;63.53
38303;BME280;24103;42.454;27.400;2023-08-08T05:21:59;100364.78;;;24.03;63.73
38303;BME280;24103;42.454;27.400;2023-08-08T05:24:24;100360.72;;;23.84;65.08
38303;BME280;24103;42.454;27.400;2023-08-08T05:26:50;100365.91;;;23.63;66.66
38303;BME280;24103;42.454;27.400;2023-08-08T05:29:16;100361.47;;;23.70;65.46
38303;BME280;24103;42.454;27.400;2023-08-08T05:31:42;100371.28;;;23.63;66.72
38303;BME280;24103;42.454;27.400;2023-08-08T05:34:07;100383.38;;;23.67;64.98
38303;BME280;24103;42.454;27.400;2023-08-08T05:36:33;100379.00;;;23.66;64.58
38303;BME280;24103;42.454;27.400;2023-08-08T05:38:58;100383.63;;;23.57;65.48
38303;BME280;24103;42.454;27.400;2023-08-08T05:41:23;100385.47;;;23.57;65.23
38303;BME280;24103;42.454;27.400;2023-08-08T05:43:49;100395.16;;;23.43;65.34
38303;BME280;24103;42.454;27.400;2023-08-08T05:46:14;100387.69;;;23.22;67.17
38303;BME280;24103;42.454;27.400;2023-08-08T05:48:40;100396.34;;;23.40;67.01
38303;BME280;24103;42.454;27.400;2023-08-08T05:51:05;100399.06;;;23.40;65.96
38303;BME280;24103;42.454;27.400;2023-08-08T05:53:31;100392.91;;;23.54;64.24
38303;BME280;24103;42.454;27.400;2023-08-08T05:55:57;100408.50;;;23.67;63.93
38303;BME280;24103;42.454;27.400;2023-08-08T05:58:23;100406.78;;;23.74;63.20
38303;BME280;24103;42.454;27.400;2023-08-08T06:00:49;100417.41;;;23.76;62.41
38303;BME280;24103;42.454;27.400;2023-08-08T06:03:15;100424.44;;;23.77;61.40
38303;BME280;24103;42.454;27.400;2023-08-08T06:05:40;100428.47;;;23.89;60.88
38303;BME280;24103;42.454;27.400;2023-08-08T06:08:06;100434.16;;;23.95;60.90
38303;BME280;24103;42.454;27.400;2023-08-08T06:10:36;100435.41;;;23.84;60.71
38303;BME280;24103;42.454;27.400;2023-08-08T06:13:02;100446.78;;;24.02;60.92
38303;BME280;24103;42.454;27.400;2023-08-08T06:15:27;100447.06;;;24.07;61.48
38303;BME280;24103;42.454;27.400;2023-08-08T06:17:53;100447.72;;;24.09;62.02
38303;BME280;24103;42.454;27.400;2023-08-08T06:20:18;100459.06;;;24.05;62.13
38303;BME280;24103;42.454;27.400;2023-08-08T06:22:44;100453.66;;;24.05;63.52
38303;BME280;24103;42.454;27.400;2023-08-08T06:25:09;100460.22;;;23.79;65.22
38303;BME280;24103;42.454;27.400;2023-08-08T06:27:36;100462.22;;;23.77;66.67
38303;BME280;24103;42.454;27.400;2023-08-08T06:30:01;100461.78;;;23.65;67.44
38303;BME280;24103;42.454;27.400;2023-08-08T06:32:28;100466.72;;;23.53;67.81
38303;BME280;24103;42.454;27.400;2023-08-08T06:34:53;100470.13;;;23.47;68.74
38303;BME280;24103;42.454;27.400;2023-08-08T06:37:20;100465.63;;;23.40;68.80
38303;BME280;24103;42.454;27.400;2023-08-08T06:39:45;100472.81;;;23.47;67.39
38303;BME280;24103;42.454;27.400;2023-08-08T06:42:11;100483.50;;;23.32;68.73
38303;BME280;24103;42.454;27.400;2023-08-08T06:44:42;100487.50;;;23.45;68.17
38303;BME280;24103;42.454;27.400;2023-08-08T06:47:08;100487.53;;;23.36;67.19
38303;BME280;24103;42.454;27.400;2023-08-08T06:49:34;100476.72;;;23.45;66.51
38303;BME280;24103;42.454;27.400;2023-08-08T06:52:00;100483.06;;;23.60;66.48
38303;BME280;24103;42.454;27.400;2023-08-08T06:54:25;100492.38;;;23.81;63.71
38303;BME280;24103;42.454;27.400;2023-08-08T06:56:53;100498.38;;;23.68;64.33
38303;BME280;24103;42.454;27.400;2023-08-08T06:59:19;100498.91;;;23.55;64.10
38303;BME280;24103;42.454;27.400;2023-08-08T07:01:44;100510.03;;;23.60;64.46
38303;BME280;24103;42.454;27.400;2023-08-08T07:04:10;100498.81;;;23.80;64.43
38303;BME280;24103;42.454;27.400;2023-08-08T07:06:35;100507.38;;;23.91;63.71
38303;BME280;24103;42.454;27.400;2023-08-08T07:09:01;100508.72;;;23.96;62.59
38303;BME280;24103;42.454;27.400;2023-08-08T07:11:27;100510.34;;;24.05;63.90
38303;BME280;24103;42.454;27.400;2023-08-08T07:13:53;100516.69;;;24.12;64.04
38303;BME280;24103;42.454;27.400;2023-08-08T07:16:18;100518.81;;;24.25;63.27
38303;BME280;24103;42.454;27.400;2023-08-08T07:18:44;100517.84;;;24.41;61.93
38303;BME280;24103;42.454;27.400;2023-08-08T07:21:10;100514.09;;;24.50;61.51
38303;BME280;24103;42.454;27.400;2023-08-08T07:23:35;100514.38;;;24.78;60.42
38303;BME280;24103;42.454;27.400;2023-08-08T07:26:01;100508.13;;;24.78;58.77
38303;BME280;24103;42.454;27.400;2023-08-08T07:28:26;100514.03;;;24.81;58.40
38303;BME280;24103;42.454;27.400;2023-08-08T07:30:52;100519.72;;;24.87;58.45
38303;BME280;24103;42.454;27.400;2023-08-08T07:33:17;100519.13;;;24.91;58.53
38303;BME280;24103;42.454;27.400;2023-08-08T07:35:42;100522.19;;;25.26;58.74
38303;BME280;24103;42.454;27.400;2023-08-08T07:38:08;100509.16;;;26.76;54.01
38303;BME280;24103;42.454;27.400;2023-08-08T07:40:34;100520.63;;;27.69;50.97
38303;BME280;24103;42.454;27.400;2023-08-08T07:42:59;100497.25;;;29.82;45.86
38303;BME280;24103;42.454;27.400;2023-08-08T07:45:25;100484.69;;;31.20;40.47
38303;BME280;24103;42.454;27.400;2023-08-08T07:47:50;100492.38;;;31.05;39.67
38303;BME280;24103;42.454;27.400;2023-08-08T07:50:16;100480.00;;;30.84;39.76
38303;BME280;24103;42.454;27.400;2023-08-08T07:52:41;100482.16;;;30.75;39.30
38303;BME280;24103;42.454;27.400;2023-08-08T07:55:07;100488.66;;;30.99;38.79
38303;BME280;24103;42.454;27.400;2023-08-08T07:57:33;100488.94;;;30.34;39.04
38303;BME280;24103;42.454;27.400;2023-08-08T08:00:02;100493.91;;;29.80;40.15
38303;BME280;24103;42.454;27.400;2023-08-08T08:02:41;100493.22;;;29.91;38.98
38303;BME280;24103;42.454;27.400;2023-08-08T08:05:07;100483.47;;;30.09;37.92
38303;BME280;24103;42.454;27.400;2023-08-08T08:07:34;100490.63;;;30.42;37.49
38303;BME280;24103;42.454;27.400;2023-08-08T08:10:01;100490.25;;;30.31;37.43
38303;BME280;24103;42.454;27.400;2023-08-08T08:12:27;100476.94;;;30.48;36.91
38303;BME280;24103;42.454;27.400;2023-08-08T08:14:52;100474.84;;;29.73;36.58
38303;BME280;24103;42.454;27.400;2023-08-08T08:17:18;100480.97;;;29.62;36.74
38303;BME280;24103;42.454;27.400;2023-08-08T08:19:43;100481.69;;;29.37;37.22
38303;BME280;24103;42.454;27.400;2023-08-08T08:22:09;100478.00;;;28.98;37.18
38303;BME280;24103;42.454;27.400;2023-08-08T08:24:34;100478.63;;;28.54;37.56
38303;BME280;24103;42.454;27.400;2023-08-08T08:27:00;100489.53;;;28.60;38.72
38303;BME280;24103;42.454;27.400;2023-08-08T08:29:25;100480.75;;;28.65;37.93
38303;BME280;24103;42.454;27.400;2023-08-08T08:31:51;100487.19;;;28.50;37.89
38303;BME280;24103;42.454;27.400;2023-08-08T08:34:16;100489.50;;;28.40;38.09
38303;BME280;24103;42.454;27.400;2023-08-08T08:36:41;100484.94;;;28.74;38.27
38303;BME280;24103;42.454;27.400;2023-08-08T08:39:07;100489.06;;;28.97;37.30
38303;BME280;24103;42.454;27.400;2023-08-08T08:41:35;100485.94;;;28.93;37.95
38303;BME280;24103;42.454;27.400;2023-08-08T08:44:02;100501.22;;;29.08;37.26
38303;BME280;24103;42.454;27.400;2023-08-08T08:46:29;100496.44;;;28.76;37.01
38303;BME280;24103;42.454;27.400;2023-08-08T08:48:58;100508.97;;;28.71;37.60
38303;BME280;24103;42.454;27.400;2023-08-08T08:51:25;100504.59;;;28.56;37.61
38303;BME280;24103;42.454;27.400;2023-08-08T08:53:51;100500.38;;;28.54;38.48
38303;BME280;24103;42.454;27.400;2023-08-08T08:56:17;100502.06;;;28.95;38.43
38303;BME280;24103;42.454;27.400;2023-08-08T08:58:43;100511.91;;;28.96;37.24
38303;BME280;24103;42.454;27.400;2023-08-08T09:01:09;100504.53;;;29.10;36.94
38303;BME280;24103;42.454;27.400;2023-08-08T09:03:35;100511.06;;;28.82;37.33
38303;BME280;24103;42.454;27.400;2023-08-08T09:06:01;100500.81;;;28.91;37.26
38303;BME280;24103;42.454;27.400;2023-08-08T09:08:27;100505.19;;;28.92;36.69
38303;BME280;24103;42.454;27.400;2023-08-08T09:10:55;100503.09;;;28.54;36.85
38303;BME280;24103;42.454;27.400;2023-08-08T09:13:21;100508.56;;;28.67;37.00
38303;BME280;24103;42.454;27.400;2023-08-08T09:15:48;100501.88;;;28.90;35.79
38303;BME280;24103;42.454;27.400;2023-08-08T09:18:16;100492.00;;;28.95;35.39
38303;BME280;24103;42.454;27.400;2023-08-08T09:20:47;100489.09;;;28.90;34.18
38303;BME280;24103;42.454;27.400;2023-08-08T09:23:13;100489.47;;;29.27;34.55
38303;BME280;24103;42.454;27.400;2023-08-08T09:25:38;100503.72;;;29.22;34.49
38303;BME280;24103;42.454;27.400;2023-08-08T09:28:04;100486.13;;;29.05;33.81
38303;BME280;24103;42.454;27.400;2023-08-08T09:30:30;100487.88;;;28.66;34.98
38303;BME280;24103;42.454;27.400;2023-08-08T09:32:58;100502.47;;;28.45;34.44
38303;BME280;24103;42.454;27.400;2023-08-08T09:35:24;100500.38;;;28.47;34.04
38303;BME280;24103;42.454;27.400;2023-08-08T09:37:53;100501.00;;;28.49;35.11
38303;BME280;24103;42.454;27.400;2023-08-08T09:40:19;100501.41;;;28.46;33.60
38303;BME280;24103;42.454;27.400;2023-08-08T09:42:47;100493.88;;;28.28;33.74
38303;BME280;24103;42.454;27.400;2023-08-08T09:45:12;100494.91;;;28.27;34.38
38303;BME280;24103;42.454;27.400;2023-08-08T09:47:38;100502.47;;;28.38;34.45
38303;BME280;24103;42.454;27.400;2023-08-08T09:50:04;100508.91;;;28.24;33.79
38303;BME280;24103;42.454;27.400;2023-08-08T09:52:34;100504.47;;;28.09;34.31
38303;BME280;24103;42.454;27.400;2023-08-08T09:55:00;100501.34;;;27.99;34.04
38303;BME280;24103;42.454;27.400;2023-08-08T09:57:25;100500.91;;;27.96;34.44
38303;BME280;24103;42.454;27.400;2023-08-08T09:59:52;100488.31;;;27.88;34.80
38303;BME280;24103;42.454;27.400;2023-08-08T10:02:18;100493.94;;;27.80;34.45
38303;BME280;24103;42.454;27.400;2023-08-08T10:04:47;100490.72;;;27.63;34.68
38303;BME280;24103;42.454;27.400;2023-08-08T10:07:14;100492.75;;;27.96;34.75
38303;BME280;24103;42.454;27.400;2023-08-08T10:09:40;100488.78;;;27.98;35.01
38303;BME280;24103;42.454;27.400;2023-08-08T10:12:06;100489.78;;;27.90;34.85
38303;BME280;24103;42.454;27.400;2023-08-08T10:14:35;100495.44;;;27.89;35.61
38303;BME280;24103;42.454;27.400;2023-08-08T10:17:05;100492.69;;;27.82;34.64
38303;BME280;24103;42.454;27.400;2023-08-08T10:19:31;100502.00;;;27.60;34.33
38303;BME280;24103;42.454;27.400;2023-08-08T10:21:59;100499.00;;;27.13;35.65
38303;BME280;24103;42.454;27.400;2023-08-08T10:24:25;100499.53;;;27.30;35.21
38303;BME280;24103;42.454;27.400;2023-08-08T10:26:58;100502.31;;;27.43;34.89
38303;BME280;24103;42.454;27.400;2023-08-08T10:29:26;100498.47;;;27.24;34.73
38303;BME280;24103;42.454;27.400;2023-08-08T10:31:59;100503.44;;;27.27;34.92
38303;BME280;24103;42.454;27.400;2023-08-08T10:34:42;100500.63;;;27.77;35.38
38303;BME280;24103;42.454;27.400;2023-08-08T10:39:37;100496.13;;;28.11;34.07
38303;BME280;24103;42.454;27.400;2023-08-08T10:42:04;100501.66;;;27.83;34.16
38303;BME280;24103;42.454;27.400;2023-08-08T10:44:30;100512.31;;;27.84;34.67
38303;BME280;24103;42.454;27.400;2023-08-08T10:46:56;100508.09;;;27.75;34.28
38303;BME280;24103;42.454;27.400;2023-08-08T10:49:22;100512.97;;;27.45;34.25
38303;BME280;24103;42.454;27.400;2023-08-08T10:51:49;100508.44;;;27.24;35.05
38303;BME280;24103;42.454;27.400;2023-08-08T10:54:19;100526.56;;;27.16;35.22
38303;BME280;24103;42.454;27.400;2023-08-08T10:56:57;100507.31;;;26.76;36.16
38303;BME280;24103;42.454;27.400;2023-08-08T10:59:24;100517.03;;;26.49;36.45
38303;BME280;24103;42.454;27.400;2023-08-08T11:01:52;100522.56;;;26.41;36.84
38303;BME280;24103;42.454;27.400;2023-08-08T11:04:23;100518.72;;;26.28;37.39
38303;BME280;24103;42.454;27.400;2023-08-08T11:06:50;100522.88;;;26.09;37.83
38303;BME280;24103;42.454;27.400;2023-08-08T11:09:17;100516.91;;;26.14;37.74
38303;BME280;24103;42.454;27.400;2023-08-08T11:11:44;100533.66;;;26.46;37.69
38303;BME280;24103;42.454;27.400;2023-08-08T11:14:15;100520.19;;;26.31;37.97
38303;BME280;24103;42.454;27.400;2023-08-08T11:16:41;100524.31;;;26.27;38.61
38303;BME280;24103;42.454;27.400;2023-08-08T11:19:10;100525.91;;;25.85;38.23
38303;BME280;24103;42.454;27.400;2023-08-08T11:21:38;100527.97;;;25.68;38.77
38303;BME280;24103;42.454;27.400;2023-08-08T11:24:05;100530.06;;;25.51;39.09
38303;BME280;24103;42.454;27.400;2023-08-08T11:26:32;100538.72;;;25.46;39.57
38303;BME280;24103;42.454;27.400;2023-08-08T11:29:00;100535.56;;;25.43;39.91
38303;BME280;24103;42.454;27.400;2023-08-08T11:31:25;100527.44;;;25.58;39.75
38303;BME280;24103;42.454;27.400;2023-08-08T11:33:53;100537.38;;;25.72;39.53
38303;BME280;24103;42.454;27.400;2023-08-08T11:36:19;100546.09;;;25.67;40.11
38303;BME280;24103;42.454;27.400;2023-08-08T11:38:45;100540.47;;;25.54;40.37
38303;BME280;24103;42.454;27.400;2023-08-08T11:41:13;100547.19;;;25.28;40.60
38303;BME280;24103;42.454;27.400;2023-08-08T11:43:40;100545.56;;;25.19;42.83
38303;BME280;24103;42.454;27.400;2023-08-08T11:46:12;100556.97;;;24.91;46.28
38303;BME280;24103;42.454;27.400;2023-08-08T11:48:39;100561.19;;;24.47;49.11
38303;BME280;24103;42.454;27.400;2023-08-08T11:51:05;100565.91;;;24.22;53.91
38303;BME280;24103;42.454;27.400;2023-08-08T11:53:31;100557.91;;;24.06;55.31
38303;BME280;24103;42.454;27.400;2023-08-08T11:55:57;100564.38;;;23.88;56.76
38303;BME280;24103;42.454;27.400;2023-08-08T11:58:26;100560.16;;;23.94;55.86
38303;BME280;24103;42.454;27.400;2023-08-08T12:00:52;100569.88;;;24.03;55.31
38303;BME280;24103;42.454;27.400;2023-08-08T12:03:20;100554.03;;;24.32;51.76
38303;BME280;24103;42.454;27.400;2023-08-08T12:05:46;100558.59;;;24.54;49.59
38303;BME280;24103;42.454;27.400;2023-08-08T12:08:12;100546.44;;;24.81;47.30
38303;BME280;24103;42.454;27.400;2023-08-08T12:10:38;100560.09;;;25.03;47.58
38303;BME280;24103;42.454;27.400;2023-08-08T12:13:04;100559.09;;;25.19;46.85
38303;BME280;24103;42.454;27.400;2023-08-08T12:15:34;100559.22;;;25.41;46.11
38303;BME280;24103;42.454;27.400;2023-08-08T12:18:03;100549.44;;;25.40;45.61
38303;BME280;24103;42.454;27.400;2023-08-08T12:20:29;100556.34;;;25.57;45.61
38303;BME280;24103;42.454;27.400;2023-08-08T12:22:56;100552.69;;;25.65;45.18
38303;BME280;24103;42.454;27.400;2023-08-08T12:25:22;100548.13;;;25.65;45.13
38303;BME280;24103;42.454;27.400;2023-08-08T12:27:47;100550.81;;;25.65;45.12
38303;BME280;24103;42.454;27.400;2023-08-08T12:30:13;100542.25;;;25.77;45.47
38303;BME280;24103;42.454;27.400;2023-08-08T12:32:38;100542.59;;;26.03;44.90
38303;BME280;24103;42.454;27.400;2023-08-08T12:35:04;100536.72;;;26.00;44.70
38303;BME280;24103;42.454;27.400;2023-08-08T12:37:31;100548.25;;;26.08;45.30